createdAt,value
2022-10-08T00:02:20.227Z,9.66
2022-10-08T00:07:22.441Z,9.69
2022-10-08T00:12:26.390Z,9.80
2022-10-08T00:17:28.292Z,10.01
2022-10-08T00:22:29.806Z,10.37
2022-10-08T00:27:31.287Z,10.54
2022-10-08T00:32:32.825Z,10.59
2022-10-08T00:37:34.321Z,10.49
2022-10-08T00:42:35.813Z,10.35
2022-10-08T00:47:45.299Z,10.28
2022-10-08T00:52:52.033Z,10.05
2022-10-08T00:57:55.421Z,9.93
2022-10-08T01:02:57.012Z,9.79
2022-10-08T01:08:20.405Z,9.62
2022-10-08T01:13:38.713Z,9.60
2022-10-08T01:18:40.352Z,9.58
2022-10-08T01:23:55.150Z,9.52
2022-10-08T01:29:11.300Z,9.43
2022-10-08T01:34:27.798Z,9.39
2022-10-08T01:39:33.797Z,9.38
2022-10-08T01:44:45.434Z,9.31
2022-10-08T01:50:11.190Z,9.29
2022-10-08T01:55:22.405Z,9.23
2022-10-08T02:00:23.946Z,9.28
2022-10-08T02:05:29.698Z,9.26
2022-10-08T02:10:32.030Z,9.17
2022-10-08T02:15:52.348Z,9.19
2022-10-08T02:21:04.115Z,9.07
2022-10-08T02:26:10.227Z,8.87
2022-10-08T02:31:20.855Z,9.22
2022-10-08T02:36:28.376Z,9.31
2022-10-08T02:41:43.995Z,9.33
2022-10-08T02:46:49.837Z,9.20
2022-10-08T02:51:54.020Z,9.16
2022-10-08T02:57:18.987Z,9.27
2022-10-08T03:02:27.872Z,9.17
2022-10-08T03:07:31.726Z,8.99
2022-10-08T03:12:36.044Z,9.13
2022-10-08T03:17:43.501Z,9.15
2022-10-08T03:22:45.333Z,9.13
2022-10-08T03:27:50.228Z,9.20
2022-10-08T03:32:52.863Z,9.22
2022-10-08T03:37:54.538Z,9.38
2022-10-08T03:42:56.028Z,9.68
2022-10-08T03:47:57.572Z,9.92
2022-10-08T03:52:59.210Z,10.11
2022-10-08T03:58:00.821Z,10.16
2022-10-08T04:03:02.403Z,10.11
2022-10-08T04:08:04.041Z,10.14
2022-10-08T04:13:05.597Z,10.18
2022-10-08T04:18:07.145Z,10.25
2022-10-08T04:23:09.721Z,10.42
2022-10-08T04:28:11.352Z,10.65
2022-10-08T04:33:12.930Z,10.91
2022-10-08T04:38:14.747Z,11.10
2022-10-08T04:43:16.290Z,11.26
2022-10-08T04:48:17.902Z,11.29
2022-10-08T04:53:19.454Z,11.37
2022-10-08T04:58:22.341Z,11.41
2022-10-08T05:03:23.919Z,11.43
2022-10-08T05:08:25.495Z,11.55
2022-10-08T05:13:27.052Z,11.46
2022-10-08T05:18:28.589Z,11.39
2022-10-08T05:23:30.352Z,11.37
2022-10-08T05:28:32.115Z,11.36
2022-10-08T05:33:35.454Z,11.37
2022-10-08T05:38:37.089Z,11.36
2022-10-08T05:43:39.574Z,11.38
2022-10-08T05:48:41.546Z,11.42
2022-10-08T05:53:47.641Z,11.58
2022-10-08T05:58:50.546Z,11.49
2022-10-08T06:03:54.191Z,11.57
2022-10-08T06:09:00.585Z,11.69
2022-10-08T06:14:04.526Z,11.89
2022-10-08T06:19:08.400Z,12.10
2022-10-08T06:24:12.317Z,12.37
2022-10-08T06:29:16.592Z,12.60
2022-10-08T06:34:18.159Z,12.84
2022-10-08T06:39:19.743Z,13.06
2022-10-08T06:44:21.477Z,13.32
2022-10-08T06:49:23.094Z,13.58
2022-10-08T06:54:24.851Z,13.74
2022-10-08T06:59:26.423Z,13.89
2022-10-08T07:04:28.049Z,14.06
2022-10-08T07:09:29.626Z,14.16
2022-10-08T07:14:31.128Z,14.24
2022-10-08T07:19:32.689Z,14.29
2022-10-08T07:24:34.333Z,14.42
2022-10-08T07:29:36.032Z,14.61
2022-10-08T07:34:37.517Z,14.63
2022-10-08T07:39:41.676Z,14.52
2022-10-08T07:44:43.338Z,14.76
2022-10-08T07:49:44.815Z,14.84
2022-10-08T07:54:46.461Z,15.02
2022-10-08T07:59:47.950Z,14.96
2022-10-08T08:04:49.513Z,15.20
2022-10-08T08:09:51.233Z,15.53
2022-10-08T08:14:52.904Z,15.52
2022-10-08T08:19:54.412Z,15.31
2022-10-08T08:24:55.922Z,14.94
2022-10-08T08:29:57.530Z,15.30
2022-10-08T08:34:59.114Z,15.26
2022-10-08T08:40:00.700Z,15.06
2022-10-08T08:45:28.213Z,15.66
2022-10-08T08:50:37.945Z,16.04
2022-10-08T08:55:42.825Z,16.35
2022-10-08T09:00:50.811Z,16.52
2022-10-08T09:05:55.884Z,17.02
2022-10-08T09:10:59.857Z,16.76
2022-10-08T09:16:01.681Z,18.27
2022-10-08T09:21:03.345Z,19.05
2022-10-08T09:26:08.071Z,18.65
2022-10-08T09:31:38.842Z,19.49
2022-10-08T09:36:43.891Z,19.92
2022-10-08T09:41:47.366Z,19.48
2022-10-08T09:47:03.706Z,18.46
2022-10-08T09:52:27.431Z,18.71
2022-10-08T09:57:31.051Z,18.10
2022-10-08T10:02:35.896Z,17.14
2022-10-08T10:07:42.788Z,16.67
2022-10-08T10:12:50.760Z,16.66
2022-10-08T10:17:57.586Z,16.84
2022-10-08T10:23:14.043Z,16.75
2022-10-08T10:28:18.858Z,17.24
2022-10-08T10:33:28.355Z,19.64
2022-10-08T10:38:32.354Z,20.55
2022-10-08T10:43:44.255Z,21.78
2022-10-08T10:48:45.829Z,19.90
2022-10-08T10:53:56.576Z,19.12
2022-10-08T10:59:25.589Z,18.37
2022-10-08T11:04:33.130Z,18.07
2022-10-08T11:10:01.342Z,19.37
2022-10-08T11:15:18.362Z,18.33
2022-10-08T11:20:52.301Z,18.90
2022-10-08T11:26:23.008Z,19.95
2022-10-08T11:31:46.527Z,20.57
2022-10-08T11:36:55.775Z,20.62
2022-10-08T11:42:01.294Z,21.25
2022-10-08T11:47:40.533Z,20.08
2022-10-08T11:52:42.180Z,19.93
2022-10-08T11:58:09.386Z,19.48
2022-10-08T12:03:24.820Z,20.06
2022-10-08T12:08:48.217Z,20.75
2022-10-08T12:14:11.620Z,21.64
2022-10-08T12:19:34.870Z,21.13
2022-10-08T12:24:39.500Z,20.59
2022-10-08T12:30:11.268Z,19.30
2022-10-08T12:35:24.679Z,18.57
2022-10-08T12:40:33.415Z,18.07
2022-10-08T12:45:46.228Z,18.21
2022-10-08T12:50:53.318Z,19.85
2022-10-08T12:55:58.306Z,21.36
2022-10-08T13:01:02.763Z,21.57
2022-10-08T13:06:31.574Z,21.25
2022-10-08T13:11:35.284Z,19.63
2022-10-08T13:16:47.756Z,19.85
2022-10-08T13:22:01.183Z,19.77
2022-10-08T13:27:02.708Z,19.77
2022-10-08T13:32:13.404Z,19.84
2022-10-08T13:37:28.352Z,19.90
2022-10-08T13:42:33.405Z,19.94
2022-10-08T13:47:34.877Z,20.66
2022-10-08T13:52:42.014Z,20.88
2022-10-08T13:57:43.510Z,21.15
2022-10-08T14:02:45.040Z,20.36
2022-10-08T14:07:51.429Z,19.85
2022-10-08T14:12:52.960Z,19.85
2022-10-08T14:17:54.595Z,20.80
2022-10-08T14:22:56.147Z,20.77
2022-10-08T14:28:01.308Z,21.43
2022-10-08T14:33:04.751Z,21.20
2022-10-08T14:38:09.300Z,19.60
2022-10-08T14:43:10.814Z,19.45
2022-10-08T14:48:12.384Z,19.86
2022-10-08T14:53:13.921Z,19.98
2022-10-08T14:58:15.841Z,20.14
2022-10-08T15:03:17.509Z,20.15
2022-10-08T15:08:20.477Z,20.14
2022-10-08T15:13:22.072Z,19.74
2022-10-08T15:18:23.944Z,19.49
2022-10-08T15:23:26.472Z,19.41
2022-10-08T15:33:50.457Z,19.23
2022-10-08T15:39:03.522Z,18.44
2022-10-08T15:44:20.091Z,17.97
2022-10-08T15:49:21.703Z,17.69
2022-10-08T15:54:23.311Z,17.33
2022-10-08T15:59:24.870Z,17.24
2022-10-08T16:04:26.573Z,16.99
2022-10-08T16:09:28.407Z,16.96
2022-10-08T16:14:30.022Z,16.83
2022-10-08T16:19:31.588Z,16.69
2022-10-08T16:24:33.384Z,16.45
2022-10-08T16:29:34.982Z,16.25
2022-10-08T16:34:36.608Z,16.19
2022-10-08T16:39:38.211Z,15.93
2022-10-08T16:44:39.779Z,15.88
2022-10-08T16:49:41.358Z,15.74
2022-10-08T16:54:42.893Z,15.53
2022-10-08T16:59:44.416Z,15.34
2022-10-08T17:04:45.933Z,15.18
2022-10-08T17:09:47.413Z,14.79
2022-10-08T17:14:49.029Z,14.44
2022-10-08T17:19:50.553Z,14.32
2022-10-08T17:24:52.058Z,14.32
2022-10-08T17:29:53.537Z,14.16
2022-10-08T17:34:55.188Z,14.02
2022-10-08T17:39:56.838Z,13.96
2022-10-08T17:44:58.334Z,13.85
2022-10-08T17:49:59.966Z,13.88
2022-10-08T17:55:01.455Z,13.75
2022-10-08T18:00:03.975Z,13.46
2022-10-08T18:05:10.441Z,13.19
2022-10-08T18:10:11.963Z,13.01
2022-10-08T18:15:13.451Z,13.08
2022-10-08T18:20:14.952Z,13.01
2022-10-08T18:25:16.466Z,12.95
2022-10-08T18:30:18.047Z,12.96
2022-10-08T18:35:19.669Z,12.68
2022-10-08T18:40:21.162Z,12.49
2022-10-08T18:45:22.861Z,12.35
2022-10-08T18:50:24.419Z,12.24
2022-10-08T18:55:25.892Z,11.93
2022-10-08T19:00:27.398Z,11.87
2022-10-08T19:05:29.010Z,11.72
2022-10-08T19:10:30.673Z,11.61
2022-10-08T19:15:35.617Z,11.44
2022-10-08T19:20:37.152Z,11.30
2022-10-08T19:25:38.688Z,11.22
2022-10-08T19:30:40.213Z,11.28
2022-10-08T19:35:41.730Z,11.26
2022-10-08T19:40:43.205Z,10.85
2022-10-08T19:45:44.692Z,10.49
2022-10-08T19:50:46.202Z,10.37
2022-10-08T19:55:47.756Z,10.19
2022-10-08T20:01:08.174Z,10.13
2022-10-08T20:06:15.049Z,9.87
2022-10-08T20:11:17.476Z,10.01
2022-10-08T20:16:22.169Z,9.95
2022-10-08T20:21:23.726Z,9.76
2022-10-08T20:26:30.528Z,9.59
2022-10-08T20:31:35.109Z,9.53
2022-10-08T20:36:36.969Z,9.44
2022-10-08T20:41:38.576Z,9.60
2022-10-08T20:46:40.236Z,9.52
2022-10-08T20:51:42.996Z,9.40
2022-10-08T20:56:45.146Z,9.31
2022-10-08T21:01:49.551Z,9.12
2022-10-08T21:06:51.592Z,9.10
2022-10-08T21:11:53.147Z,9.24
2022-10-08T21:16:54.743Z,9.10
2022-10-08T21:21:56.239Z,9.03
2022-10-08T21:26:57.733Z,9.15
2022-10-08T21:31:59.294Z,9.20
2022-10-08T21:37:00.849Z,8.90
2022-10-08T21:42:02.378Z,8.43
2022-10-08T21:47:03.975Z,8.22
2022-10-08T21:52:05.527Z,8.61
2022-10-08T21:57:07.025Z,8.54
2022-10-08T22:02:08.692Z,8.51
2022-10-08T22:07:10.235Z,8.37
2022-10-08T22:12:11.871Z,8.43
2022-10-08T22:17:13.364Z,8.49
2022-10-08T22:22:14.886Z,8.61
2022-10-08T22:27:16.408Z,8.54
2022-10-08T22:32:17.891Z,8.39
2022-10-08T22:37:19.386Z,7.99
2022-10-08T22:42:20.848Z,7.74
2022-10-08T22:47:22.340Z,7.74
2022-10-08T22:52:23.841Z,7.67
2022-10-08T22:57:25.339Z,7.59
2022-10-08T23:02:27.065Z,7.79
2022-10-08T23:07:28.612Z,7.82
2022-10-08T23:12:30.093Z,7.59
2022-10-08T23:17:31.598Z,7.47
2022-10-08T23:22:33.108Z,7.62
2022-10-08T23:27:34.600Z,7.58
2022-10-08T23:32:36.126Z,7.53
2022-10-08T23:37:37.633Z,7.51
2022-10-08T23:42:40.334Z,7.34
2022-10-08T23:47:41.796Z,7.35
2022-10-08T23:52:43.287Z,7.21
2022-10-08T23:57:44.813Z,7.10
